sensor_id;sensor_type;location;lat;lon;timestamp;P1;durP1;ratioP1;P2;durP2;ratioP2
1178;SDS011;578;48.408;10.004;2022-11-15T00:01:07;8.13;;;6.20;;
1178;SDS011;578;48.408;10.004;2022-11-15T00:03:35;9.47;;;6.30;;
1178;SDS011;578;48.408;10.004;2022-11-15T00:06:02;12.10;;;5.90;;
1178;SDS011;578;48.408;10.004;2022-11-15T00:08:29;7.70;;;6.00;;
1178;SDS011;578;48.408;10.004;2022-11-15T00:10:56;9.03;;;7.50;;
1178;SDS011;578;48.408;10.004;2022-11-15T00:13:25;8.50;;;7.50;;
1178;SDS011;578;48.408;10.004;2022-11-15T00:15:52;12.23;;;7.47;;
1178;SDS011;578;48.408;10.004;2022-11-15T00:18:23;9.43;;;6.73;;
1178;SDS011;578;48.408;10.004;2022-11-15T00:20:50;7.97;;;6.50;;
1178;SDS011;578;48.408;10.004;2022-11-15T00:23:17;10.13;;;7.20;;
1178;SDS011;578;48.408;10.004;2022-11-15T00:25:43;10.73;;;7.17;;
1178;SDS011;578;48.408;10.004;2022-11-15T00:28:10;10.40;;;6.70;;
1178;SDS011;578;48.408;10.004;2022-11-15T00:30:37;12.07;;;8.37;;
1178;SDS011;578;48.408;10.004;2022-11-15T00:33:04;11.30;;;6.77;;
1178;SDS011;578;48.408;10.004;2022-11-15T00:35:33;11.87;;;7.73;;
1178;SDS011;578;48.408;10.004;2022-11-15T00:38:00;9.90;;;7.07;;
1178;SDS011;578;48.408;10.004;2022-11-15T00:40:27;11.83;;;7.30;;
1178;SDS011;578;48.408;10.004;2022-11-15T00:42:54;9.43;;;7.53;;
1178;SDS011;578;48.408;10.004;2022-11-15T00:45:21;8.80;;;6.93;;
1178;SDS011;578;48.408;10.004;2022-11-15T00:47:48;12.00;;;9.70;;
1178;SDS011;578;48.408;10.004;2022-11-15T00:50:15;10.20;;;8.10;;
1178;SDS011;578;48.408;10.004;2022-11-15T00:52:43;12.53;;;6.43;;
1178;SDS011;578;48.408;10.004;2022-11-15T00:55:12;11.27;;;7.73;;
1178;SDS011;578;48.408;10.004;2022-11-15T00:57:40;11.03;;;7.53;;
1178;SDS011;578;48.408;10.004;2022-11-15T01:00:07;10.03;;;7.50;;
1178;SDS011;578;48.408;10.004;2022-11-15T01:02:34;10.23;;;6.53;;
1178;SDS011;578;48.408;10.004;2022-11-15T01:05:01;8.50;;;6.43;;
1178;SDS011;578;48.408;10.004;2022-11-15T01:07:28;19.40;;;7.50;;
1178;SDS011;578;48.408;10.004;2022-11-15T01:09:56;11.70;;;7.30;;
1178;SDS011;578;48.408;10.004;2022-11-15T01:12:23;10.20;;;6.70;;
1178;SDS011;578;48.408;10.004;2022-11-15T01:14:50;10.13;;;6.97;;
1178;SDS011;578;48.408;10.004;2022-11-15T01:17:16;10.83;;;7.20;;
1178;SDS011;578;48.408;10.004;2022-11-15T01:19:43;6.87;;;6.13;;
1178;SDS011;578;48.408;10.004;2022-11-15T01:22:10;10.37;;;6.07;;
1178;SDS011;578;48.408;10.004;2022-11-15T01:24:36;11.00;;;7.50;;
1178;SDS011;578;48.408;10.004;2022-11-15T01:27:05;11.10;;;6.57;;
1178;SDS011;578;48.408;10.004;2022-11-15T01:29:32;8.50;;;6.13;;
1178;SDS011;578;48.408;10.004;2022-11-15T01:31:59;6.97;;;5.47;;
1178;SDS011;578;48.408;10.004;2022-11-15T01:34:25;9.53;;;5.73;;
1178;SDS011;578;48.408;10.004;2022-11-15T01:36:52;10.60;;;6.90;;
1178;SDS011;578;48.408;10.004;2022-11-15T01:39:19;9.77;;;7.07;;
1178;SDS011;578;48.408;10.004;2022-11-15T01:41:46;7.97;;;6.17;;
1178;SDS011;578;48.408;10.004;2022-11-15T01:44:37;7.27;;;5.20;;
1178;SDS011;578;48.408;10.004;2022-11-15T01:47:07;11.70;;;6.73;;
1178;SDS011;578;48.408;10.004;2022-11-15T01:49:37;12.17;;;6.50;;
1178;SDS011;578;48.408;10.004;2022-11-15T01:52:07;7.50;;;6.20;;
1178;SDS011;578;48.408;10.004;2022-11-15T01:54:37;10.10;;;6.63;;
1178;SDS011;578;48.408;10.004;2022-11-15T01:57:05;11.20;;;7.60;;
1178;SDS011;578;48.408;10.004;2022-11-15T01:59:37;10.03;;;6.53;;
1178;SDS011;578;48.408;10.004;2022-11-15T02:02:06;10.07;;;6.97;;
1178;SDS011;578;48.408;10.004;2022-11-15T02:04:33;11.23;;;6.50;;
1178;SDS011;578;48.408;10.004;2022-11-15T02:07:04;11.17;;;7.03;;
1178;SDS011;578;48.408;10.004;2022-11-15T02:09:35;10.10;;;6.93;;
1178;SDS011;578;48.408;10.004;2022-11-15T02:12:03;13.10;;;6.47;;
1178;SDS011;578;48.408;10.004;2022-11-15T02:14:31;10.93;;;6.40;;
1178;SDS011;578;48.408;10.004;2022-11-15T02:17:01;10.60;;;7.37;;
1178;SDS011;578;48.408;10.004;2022-11-15T02:22:46;7.27;;;5.93;;
1178;SDS011;578;48.408;10.004;2022-11-15T02:25:29;14.20;;;7.80;;
1178;SDS011;578;48.408;10.004;2022-11-15T02:28:22;11.00;;;7.50;;
1178;SDS011;578;48.408;10.004;2022-11-15T02:31:05;10.40;;;7.40;;
1178;SDS011;578;48.408;10.004;2022-11-15T02:33:41;11.87;;;8.13;;
1178;SDS011;578;48.408;10.004;2022-11-15T02:36:14;10.32;;;7.43;;
1178;SDS011;578;48.408;10.004;2022-11-15T02:38:56;10.47;;;7.20;;
1178;SDS011;578;48.408;10.004;2022-11-15T02:41:30;9.70;;;7.10;;
1178;SDS011;578;48.408;10.004;2022-11-15T02:44:02;9.23;;;7.43;;
1178;SDS011;578;48.408;10.004;2022-11-15T02:46:35;21.57;;;7.67;;
1178;SDS011;578;48.408;10.004;2022-11-15T02:49:22;17.83;;;8.30;;
1178;SDS011;578;48.408;10.004;2022-11-15T02:51:51;10.53;;;7.80;;
1178;SDS011;578;48.408;10.004;2022-11-15T02:54:20;10.13;;;7.50;;
1178;SDS011;578;48.408;10.004;2022-11-15T02:56:50;10.33;;;7.17;;
1178;SDS011;578;48.408;10.004;2022-11-15T03:02:23;15.50;;;7.57;;
1178;SDS011;578;48.408;10.004;2022-11-15T03:05:02;9.83;;;8.73;;
1178;SDS011;578;48.408;10.004;2022-11-15T03:07:36;12.33;;;8.90;;
1178;SDS011;578;48.408;10.004;2022-11-15T03:10:09;11.03;;;8.43;;
1178;SDS011;578;48.408;10.004;2022-11-15T03:12:43;8.70;;;6.63;;
1178;SDS011;578;48.408;10.004;2022-11-15T03:15:16;9.93;;;7.78;;
1178;SDS011;578;48.408;10.004;2022-11-15T03:17:49;13.40;;;9.80;;
1178;SDS011;578;48.408;10.004;2022-11-15T03:20:21;12.20;;;8.97;;
1178;SDS011;578;48.408;10.004;2022-11-15T03:22:52;14.00;;;9.93;;
1178;SDS011;578;48.408;10.004;2022-11-15T03:25:23;18.73;;;9.25;;
1178;SDS011;578;48.408;10.004;2022-11-15T03:27:52;14.30;;;9.17;;
1178;SDS011;578;48.408;10.004;2022-11-15T03:30:21;12.00;;;8.47;;
1178;SDS011;578;48.408;10.004;2022-11-15T03:32:52;12.25;;;8.52;;
1178;SDS011;578;48.408;10.004;2022-11-15T03:35:22;12.55;;;9.48;;
1178;SDS011;578;48.408;10.004;2022-11-15T03:37:51;16.00;;;9.13;;
1178;SDS011;578;48.408;10.004;2022-11-15T03:40:21;14.43;;;8.43;;
1178;SDS011;578;48.408;10.004;2022-11-15T03:42:53;12.65;;;7.90;;
1178;SDS011;578;48.408;10.004;2022-11-15T03:45:28;11.15;;;7.78;;
1178;SDS011;578;48.408;10.004;2022-11-15T03:47:59;13.82;;;8.48;;
1178;SDS011;578;48.408;10.004;2022-11-15T03:50:31;11.63;;;7.95;;
1178;SDS011;578;48.408;10.004;2022-11-15T03:52:58;16.27;;;8.53;;
1178;SDS011;578;48.408;10.004;2022-11-15T03:55:25;9.73;;;7.20;;
1178;SDS011;578;48.408;10.004;2022-11-15T03:57:52;11.57;;;7.88;;
1178;SDS011;578;48.408;10.004;2022-11-15T04:00:22;10.48;;;8.07;;
1178;SDS011;578;48.408;10.004;2022-11-15T04:02:49;11.32;;;8.02;;
1178;SDS011;578;48.408;10.004;2022-11-15T04:05:17;10.13;;;7.43;;
1178;SDS011;578;48.408;10.004;2022-11-15T04:07:44;11.07;;;8.50;;
1178;SDS011;578;48.408;10.004;2022-11-15T04:10:11;11.68;;;8.43;;
1178;SDS011;578;48.408;10.004;2022-11-15T04:12:38;14.73;;;8.03;;
1178;SDS011;578;48.408;10.004;2022-11-15T04:15:08;11.30;;;8.20;;
1178;SDS011;578;48.408;10.004;2022-11-15T04:17:38;16.70;;;8.52;;
1178;SDS011;578;48.408;10.004;2022-11-15T04:20:07;16.63;;;8.98;;
1178;SDS011;578;48.408;10.004;2022-11-15T04:22:55;17.25;;;9.73;;
1178;SDS011;578;48.408;10.004;2022-11-15T04:25:40;16.83;;;9.75;;
1178;SDS011;578;48.408;10.004;2022-11-15T04:28:07;15.93;;;10.30;;
1178;SDS011;578;48.408;10.004;2022-11-15T04:30:34;14.00;;;10.32;;
1178;SDS011;578;48.408;10.004;2022-11-15T04:33:01;14.67;;;8.77;;
1178;SDS011;578;48.408;10.004;2022-11-15T04:35:27;15.20;;;8.37;;
1178;SDS011;578;48.408;10.004;2022-11-15T04:37:56;17.30;;;9.50;;
1178;SDS011;578;48.408;10.004;2022-11-15T04:40:22;16.93;;;10.00;;
1178;SDS011;578;48.408;10.004;2022-11-15T04:42:49;16.23;;;9.57;;
1178;SDS011;578;48.408;10.004;2022-11-15T04:45:16;16.57;;;11.10;;
1178;SDS011;578;48.408;10.004;2022-11-15T04:47:43;18.60;;;10.30;;
1178;SDS011;578;48.408;10.004;2022-11-15T04:50:11;17.27;;;9.50;;
1178;SDS011;578;48.408;10.004;2022-11-15T04:52:39;14.17;;;8.93;;
1178;SDS011;578;48.408;10.004;2022-11-15T04:55:08;15.73;;;10.43;;
1178;SDS011;578;48.408;10.004;2022-11-15T04:57:35;19.50;;;9.30;;
1178;SDS011;578;48.408;10.004;2022-11-15T05:00:03;14.20;;;9.75;;
1178;SDS011;578;48.408;10.004;2022-11-15T05:02:31;19.27;;;10.90;;
1178;SDS011;578;48.408;10.004;2022-11-15T05:05:11;17.27;;;9.80;;
1178;SDS011;578;48.408;10.004;2022-11-15T05:07:38;20.83;;;10.23;;
1178;SDS011;578;48.408;10.004;2022-11-15T05:10:05;16.95;;;11.48;;
1178;SDS011;578;48.408;10.004;2022-11-15T05:12:34;21.83;;;11.80;;
1178;SDS011;578;48.408;10.004;2022-11-15T05:15:01;22.83;;;10.90;;
1178;SDS011;578;48.408;10.004;2022-11-15T05:17:28;15.93;;;9.93;;
1178;SDS011;578;48.408;10.004;2022-11-15T05:19:55;15.20;;;9.47;;
1178;SDS011;578;48.408;10.004;2022-11-15T05:22:22;18.40;;;11.40;;
1178;SDS011;578;48.408;10.004;2022-11-15T05:24:49;18.33;;;9.63;;
1178;SDS011;578;48.408;10.004;2022-11-15T05:27:17;11.83;;;9.63;;
1178;SDS011;578;48.408;10.004;2022-11-15T05:29:43;18.33;;;11.03;;
1178;SDS011;578;48.408;10.004;2022-11-15T05:32:10;14.37;;;10.70;;
1178;SDS011;578;48.408;10.004;2022-11-15T05:34:38;23.93;;;11.80;;
1178;SDS011;578;48.408;10.004;2022-11-15T05:37:05;15.05;;;13.55;;
1178;SDS011;578;48.408;10.004;2022-11-15T05:39:32;13.93;;;10.52;;
1178;SDS011;578;48.408;10.004;2022-11-15T05:41:59;14.87;;;10.50;;
1178;SDS011;578;48.408;10.004;2022-11-15T05:44:33;15.23;;;11.33;;
1178;SDS011;578;48.408;10.004;2022-11-15T05:47:02;14.10;;;10.53;;
1178;SDS011;578;48.408;10.004;2022-11-15T05:49:31;14.18;;;9.65;;
1178;SDS011;578;48.408;10.004;2022-11-15T05:52:00;15.73;;;9.90;;
1178;SDS011;578;48.408;10.004;2022-11-15T05:54:31;14.30;;;10.30;;
1178;SDS011;578;48.408;10.004;2022-11-15T05:56:59;16.83;;;10.77;;
1178;SDS011;578;48.408;10.004;2022-11-15T05:59:27;16.57;;;10.23;;
1178;SDS011;578;48.408;10.004;2022-11-15T06:01:56;12.32;;;10.10;;
1178;SDS011;578;48.408;10.004;2022-11-15T06:04:23;12.83;;;9.40;;
1178;SDS011;578;48.408;10.004;2022-11-15T06:06:50;13.77;;;10.60;;
1178;SDS011;578;48.408;10.004;2022-11-15T06:09:17;14.40;;;10.87;;
1178;SDS011;578;48.408;10.004;2022-11-15T06:11:44;14.47;;;9.90;;
1178;SDS011;578;48.408;10.004;2022-11-15T06:14:10;14.50;;;10.13;;
1178;SDS011;578;48.408;10.004;2022-11-15T06:16:37;13.93;;;9.93;;
1178;SDS011;578;48.408;10.004;2022-11-15T06:19:06;14.13;;;11.20;;
1178;SDS011;578;48.408;10.004;2022-11-15T06:21:33;17.80;;;11.40;;
1178;SDS011;578;48.408;10.004;2022-11-15T06:24:00;19.63;;;10.97;;
1178;SDS011;578;48.408;10.004;2022-11-15T06:26:26;16.95;;;12.95;;
1178;SDS011;578;48.408;10.004;2022-11-15T06:28:53;13.67;;;11.73;;
1178;SDS011;578;48.408;10.004;2022-11-15T06:31:20;17.30;;;11.80;;
1178;SDS011;578;48.408;10.004;2022-11-15T06:33:47;18.33;;;11.50;;
1178;SDS011;578;48.408;10.004;2022-11-15T06:36:16;18.53;;;12.53;;
1178;SDS011;578;48.408;10.004;2022-11-15T06:38:43;22.17;;;14.07;;
1178;SDS011;578;48.408;10.004;2022-11-15T06:41:10;17.57;;;12.67;;
1178;SDS011;578;48.408;10.004;2022-11-15T06:43:38;18.70;;;13.10;;
1178;SDS011;578;48.408;10.004;2022-11-15T06:46:05;20.10;;;13.83;;
1178;SDS011;578;48.408;10.004;2022-11-15T06:48:33;20.67;;;14.23;;
1178;SDS011;578;48.408;10.004;2022-11-15T06:51:01;25.77;;;16.17;;
1178;SDS011;578;48.408;10.004;2022-11-15T06:53:31;18.20;;;14.67;;
1178;SDS011;578;48.408;10.004;2022-11-15T06:55:58;30.80;;;15.57;;
1178;SDS011;578;48.408;10.004;2022-11-15T06:58:26;29.90;;;15.88;;
1178;SDS011;578;48.408;10.004;2022-11-15T07:00:53;20.90;;;14.57;;
1178;SDS011;578;48.408;10.004;2022-11-15T07:03:20;18.67;;;14.17;;
1178;SDS011;578;48.408;10.004;2022-11-15T07:05:50;20.63;;;14.40;;
1178;SDS011;578;48.408;10.004;2022-11-15T07:08:19;19.10;;;12.97;;
1178;SDS011;578;48.408;10.004;2022-11-15T07:10:47;16.43;;;12.33;;
1178;SDS011;578;48.408;10.004;2022-11-15T07:13:14;15.87;;;12.57;;
1178;SDS011;578;48.408;10.004;2022-11-15T07:15:41;22.23;;;13.93;;
1178;SDS011;578;48.408;10.004;2022-11-15T07:18:08;22.10;;;14.37;;
1178;SDS011;578;48.408;10.004;2022-11-15T07:20:34;25.93;;;15.87;;
1178;SDS011;578;48.408;10.004;2022-11-15T07:23:01;26.47;;;16.13;;
1178;SDS011;578;48.408;10.004;2022-11-15T07:25:28;24.57;;;17.00;;
1178;SDS011;578;48.408;10.004;2022-11-15T07:27:57;29.13;;;16.80;;
1178;SDS011;578;48.408;10.004;2022-11-15T07:30:24;21.23;;;15.80;;
1178;SDS011;578;48.408;10.004;2022-11-15T07:32:53;21.20;;;16.27;;
1178;SDS011;578;48.408;10.004;2022-11-15T07:35:20;20.50;;;15.07;;
1178;SDS011;578;48.408;10.004;2022-11-15T07:37:52;18.50;;;14.50;;
1178;SDS011;578;48.408;10.004;2022-11-15T07:40:20;22.43;;;15.90;;
1178;SDS011;578;48.408;10.004;2022-11-15T07:42:47;22.80;;;17.10;;
1178;SDS011;578;48.408;10.004;2022-11-15T07:45:22;31.47;;;17.80;;
1178;SDS011;578;48.408;10.004;2022-11-15T07:47:51;19.00;;;14.63;;
1178;SDS011;578;48.408;10.004;2022-11-15T07:50:18;24.70;;;16.80;;
1178;SDS011;578;48.408;10.004;2022-11-15T07:52:45;21.63;;;15.63;;
1178;SDS011;578;48.408;10.004;2022-11-15T07:55:12;19.30;;;15.20;;
1178;SDS011;578;48.408;10.004;2022-11-15T07:57:39;14.83;;;11.30;;
1178;SDS011;578;48.408;10.004;2022-11-15T08:00:06;12.10;;;10.57;;
1178;SDS011;578;48.408;10.004;2022-11-15T08:02:35;13.30;;;11.80;;
1178;SDS011;578;48.408;10.004;2022-11-15T08:05:02;14.20;;;10.77;;
1178;SDS011;578;48.408;10.004;2022-11-15T08:07:29;12.10;;;10.73;;
1178;SDS011;578;48.408;10.004;2022-11-15T08:09:56;15.43;;;10.50;;
1178;SDS011;578;48.408;10.004;2022-11-15T08:12:23;15.57;;;10.80;;
1178;SDS011;578;48.408;10.004;2022-11-15T08:14:50;10.03;;;9.03;;
1178;SDS011;578;48.408;10.004;2022-11-15T08:17:17;11.20;;;9.07;;
1178;SDS011;578;48.408;10.004;2022-11-15T08:19:45;12.80;;;10.60;;
1178;SDS011;578;48.408;10.004;2022-11-15T08:22:12;16.00;;;9.83;;
1178;SDS011;578;48.408;10.004;2022-11-15T08:24:38;13.03;;;10.40;;
1178;SDS011;578;48.408;10.004;2022-11-15T08:27:05;13.20;;;10.03;;
1178;SDS011;578;48.408;10.004;2022-11-15T08:29:40;12.50;;;9.93;;
1178;SDS011;578;48.408;10.004;2022-11-15T08:32:07;13.30;;;10.70;;
1178;SDS011;578;48.408;10.004;2022-11-15T08:34:34;13.43;;;11.50;;
1178;SDS011;578;48.408;10.004;2022-11-15T08:37:02;18.80;;;10.93;;
1178;SDS011;578;48.408;10.004;2022-11-15T08:39:29;23.80;;;11.60;;
1178;SDS011;578;48.408;10.004;2022-11-15T08:41:56;18.10;;;14.13;;
1178;SDS011;578;48.408;10.004;2022-11-15T08:44:23;19.43;;;14.70;;
1178;SDS011;578;48.408;10.004;2022-11-15T08:46:50;14.83;;;12.93;;
1178;SDS011;578;48.408;10.004;2022-11-15T08:49:16;22.03;;;15.63;;
1178;SDS011;578;48.408;10.004;2022-11-15T08:51:43;19.80;;;16.10;;
1178;SDS011;578;48.408;10.004;2022-11-15T08:54:11;24.90;;;17.27;;
1178;SDS011;578;48.408;10.004;2022-11-15T08:56:38;19.10;;;16.60;;
1178;SDS011;578;48.408;10.004;2022-11-15T08:59:04;24.57;;;14.63;;
1178;SDS011;578;48.408;10.004;2022-11-15T09:01:31;22.90;;;14.07;;
1178;SDS011;578;48.408;10.004;2022-11-15T09:03:58;15.33;;;12.63;;
1178;SDS011;578;48.408;10.004;2022-11-15T09:06:25;15.10;;;12.50;;
1178;SDS011;578;48.408;10.004;2022-11-15T09:08:52;15.70;;;12.03;;
1178;SDS011;578;48.408;10.004;2022-11-15T09:11:20;16.67;;;12.60;;
1178;SDS011;578;48.408;10.004;2022-11-15T09:13:48;17.17;;;13.60;;
1178;SDS011;578;48.408;10.004;2022-11-15T09:16:15;16.07;;;12.60;;
1178;SDS011;578;48.408;10.004;2022-11-15T09:18:41;20.83;;;15.03;;
1178;SDS011;578;48.408;10.004;2022-11-15T09:21:08;14.97;;;13.40;;
1178;SDS011;578;48.408;10.004;2022-11-15T09:23:35;16.73;;;14.97;;
1178;SDS011;578;48.408;10.004;2022-11-15T09:26:03;17.63;;;14.20;;
1178;SDS011;578;48.408;10.004;2022-11-15T09:28:32;17.47;;;15.40;;
1178;SDS011;578;48.408;10.004;2022-11-15T09:31:00;17.17;;;13.60;;
1178;SDS011;578;48.408;10.004;2022-11-15T09:33:28;16.40;;;13.90;;
1178;SDS011;578;48.408;10.004;2022-11-15T09:35:59;25.67;;;16.40;;
1178;SDS011;578;48.408;10.004;2022-11-15T09:38:26;18.90;;;16.10;;
1178;SDS011;578;48.408;10.004;2022-11-15T09:40:56;19.90;;;16.20;;
1178;SDS011;578;48.408;10.004;2022-11-15T09:43:42;17.60;;;14.80;;
1178;SDS011;578;48.408;10.004;2022-11-15T09:46:19;15.80;;;13.30;;
1178;SDS011;578;48.408;10.004;2022-11-15T09:48:53;19.20;;;14.13;;
1178;SDS011;578;48.408;10.004;2022-11-15T09:51:26;18.30;;;13.93;;
1178;SDS011;578;48.408;10.004;2022-11-15T09:53:57;15.30;;;13.57;;
1178;SDS011;578;48.408;10.004;2022-11-15T09:56:29;18.33;;;15.47;;
1178;SDS011;578;48.408;10.004;2022-11-15T09:59:01;22.50;;;16.87;;
1178;SDS011;578;48.408;10.004;2022-11-15T10:01:43;20.07;;;15.80;;
1178;SDS011;578;48.408;10.004;2022-11-15T10:04:15;21.33;;;15.93;;
1178;SDS011;578;48.408;10.004;2022-11-15T10:06:43;21.33;;;15.23;;
1178;SDS011;578;48.408;10.004;2022-11-15T10:09:16;15.50;;;13.50;;
1178;SDS011;578;48.408;10.004;2022-11-15T10:11:48;18.50;;;14.50;;
1178;SDS011;578;48.408;10.004;2022-11-15T10:14:18;20.73;;;15.30;;
1178;SDS011;578;48.408;10.004;2022-11-15T10:16:53;18.30;;;16.07;;
1178;SDS011;578;48.408;10.004;2022-11-15T10:19:38;22.50;;;17.70;;
1178;SDS011;578;48.408;10.004;2022-11-15T10:22:20;23.10;;;18.23;;
1178;SDS011;578;48.408;10.004;2022-11-15T10:24:52;26.87;;;20.17;;
1178;SDS011;578;48.408;10.004;2022-11-15T10:27:35;28.83;;;25.60;;
1178;SDS011;578;48.408;10.004;2022-11-15T10:30:03;32.67;;;27.47;;
1178;SDS011;578;48.408;10.004;2022-11-15T10:32:37;31.93;;;26.67;;
1178;SDS011;578;48.408;10.004;2022-11-15T10:35:15;39.50;;;34.73;;
1178;SDS011;578;48.408;10.004;2022-11-15T10:37:44;41.20;;;35.60;;
1178;SDS011;578;48.408;10.004;2022-11-15T10:40:14;27.97;;;24.10;;
1178;SDS011;578;48.408;10.004;2022-11-15T10:42:43;31.83;;;23.10;;
1178;SDS011;578;48.408;10.004;2022-11-15T10:45:23;35.90;;;27.97;;
1178;SDS011;578;48.408;10.004;2022-11-15T10:47:52;32.20;;;28.30;;
1178;SDS011;578;48.408;10.004;2022-11-15T10:50:26;32.80;;;27.77;;
1178;SDS011;578;48.408;10.004;2022-11-15T10:52:54;31.43;;;25.30;;
1178;SDS011;578;48.408;10.004;2022-11-15T10:55:22;25.33;;;20.00;;
1178;SDS011;578;48.408;10.004;2022-11-15T10:57:52;20.93;;;17.83;;
1178;SDS011;578;48.408;10.004;2022-11-15T11:00:27;18.60;;;16.07;;
1178;SDS011;578;48.408;10.004;2022-11-15T11:02:58;17.57;;;13.23;;
1178;SDS011;578;48.408;10.004;2022-11-15T11:05:27;16.17;;;12.33;;
1178;SDS011;578;48.408;10.004;2022-11-15T11:07:58;18.07;;;12.87;;
1178;SDS011;578;48.408;10.004;2022-11-15T11:10:26;14.17;;;11.57;;
1178;SDS011;578;48.408;10.004;2022-11-15T11:12:53;14.40;;;11.57;;
1178;SDS011;578;48.408;10.004;2022-11-15T11:15:20;17.57;;;11.40;;
1178;SDS011;578;48.408;10.004;2022-11-15T11:17:56;15.97;;;12.70;;
1178;SDS011;578;48.408;10.004;2022-11-15T11:20:29;22.30;;;14.83;;
1178;SDS011;578;48.408;10.004;2022-11-15T11:23:03;20.67;;;13.63;;
1178;SDS011;578;48.408;10.004;2022-11-15T11:25:44;25.23;;;15.20;;
1178;SDS011;578;48.408;10.004;2022-11-15T11:28:25;22.77;;;14.27;;
1178;SDS011;578;48.408;10.004;2022-11-15T11:31:04;36.13;;;14.90;;
1178;SDS011;578;48.408;10.004;2022-11-15T11:33:41;23.57;;;14.97;;
1178;SDS011;578;48.408;10.004;2022-11-15T11:36:16;30.43;;;16.20;;
1178;SDS011;578;48.408;10.004;2022-11-15T11:38:50;39.27;;;16.70;;
1178;SDS011;578;48.408;10.004;2022-11-15T11:44:23;27.60;;;13.80;;
1178;SDS011;578;48.408;10.004;2022-11-15T11:46:59;30.93;;;14.33;;
1178;SDS011;578;48.408;10.004;2022-11-15T11:49:29;22.80;;;12.23;;
1178;SDS011;578;48.408;10.004;2022-11-15T11:52:04;20.53;;;12.50;;
1178;SDS011;578;48.408;10.004;2022-11-15T11:54:39;28.13;;;11.30;;
1178;SDS011;578;48.408;10.004;2022-11-15T11:57:14;17.30;;;10.63;;
1178;SDS011;578;48.408;10.004;2022-11-15T11:59:48;18.47;;;11.37;;
1178;SDS011;578;48.408;10.004;2022-11-15T12:02:21;15.63;;;10.10;;
1178;SDS011;578;48.408;10.004;2022-11-15T12:05:04;15.20;;;10.10;;
1178;SDS011;578;48.408;10.004;2022-11-15T12:07:37;12.50;;;9.20;;
1178;SDS011;578;48.408;10.004;2022-11-15T12:10:11;10.50;;;8.43;;
1178;SDS011;578;48.408;10.004;2022-11-15T12:12:48;10.93;;;9.27;;
1178;SDS011;578;48.408;10.004;2022-11-15T12:15:20;12.00;;;8.60;;
1178;SDS011;578;48.408;10.004;2022-11-15T12:17:50;12.50;;;9.27;;
1178;SDS011;578;48.408;10.004;2022-11-15T12:20:19;9.60;;;8.00;;
1178;SDS011;578;48.408;10.004;2022-11-15T12:22:50;13.23;;;8.97;;
1178;SDS011;578;48.408;10.004;2022-11-15T12:25:21;11.40;;;9.03;;
1178;SDS011;578;48.408;10.004;2022-11-15T12:27:53;12.40;;;8.60;;
1178;SDS011;578;48.408;10.004;2022-11-15T12:30:23;10.90;;;8.40;;
1178;SDS011;578;48.408;10.004;2022-11-15T12:32:54;9.30;;;8.27;;
1178;SDS011;578;48.408;10.004;2022-11-15T12:35:26;17.40;;;10.20;;
1178;SDS011;578;48.408;10.004;2022-11-15T12:37:59;12.87;;;8.20;;
1178;SDS011;578;48.408;10.004;2022-11-15T12:40:33;13.33;;;9.10;;
1178;SDS011;578;48.408;10.004;2022-11-15T12:43:04;10.83;;;8.10;;
1178;SDS011;578;48.408;10.004;2022-11-15T12:45:46;11.10;;;8.53;;
1178;SDS011;578;48.408;10.004;2022-11-15T12:57:28;15.97;;;9.53;;
1178;SDS011;578;48.408;10.004;2022-11-15T13:05:52;12.43;;;8.20;;
1178;SDS011;578;48.408;10.004;2022-11-15T13:20:00;9.10;;;6.57;;
1178;SDS011;578;48.408;10.004;2022-11-15T13:22:59;10.27;;;7.20;;
1178;SDS011;578;48.408;10.004;2022-11-15T13:28:33;10.13;;;7.67;;
1178;SDS011;578;48.408;10.004;2022-11-15T13:31:19;10.67;;;7.10;;
1178;SDS011;578;48.408;10.004;2022-11-15T13:33:50;11.63;;;6.73;;
1178;SDS011;578;48.408;10.004;2022-11-15T13:36:19;13.17;;;7.87;;
1178;SDS011;578;48.408;10.004;2022-11-15T13:38:54;10.50;;;7.73;;
1178;SDS011;578;48.408;10.004;2022-11-15T13:41:25;8.80;;;7.23;;
1178;SDS011;578;48.408;10.004;2022-11-15T13:43:54;13.87;;;9.73;;
1178;SDS011;578;48.408;10.004;2022-11-15T13:46:22;11.23;;;8.23;;
1178;SDS011;578;48.408;10.004;2022-11-15T13:48:54;12.47;;;8.40;;
1178;SDS011;578;48.408;10.004;2022-11-15T13:51:28;12.90;;;9.50;;
1178;SDS011;578;48.408;10.004;2022-11-15T13:54:00;13.40;;;9.10;;
1178;SDS011;578;48.408;10.004;2022-11-15T13:56:31;14.50;;;10.30;;
1178;SDS011;578;48.408;10.004;2022-11-15T13:58:59;23.53;;;13.33;;
1178;SDS011;578;48.408;10.004;2022-11-15T14:01:27;12.00;;;9.23;;
1178;SDS011;578;48.408;10.004;2022-11-15T14:03:58;18.20;;;11.70;;
1178;SDS011;578;48.408;10.004;2022-11-15T14:06:27;13.30;;;9.70;;
1178;SDS011;578;48.408;10.004;2022-11-15T14:09:03;14.07;;;9.50;;
1178;SDS011;578;48.408;10.004;2022-11-15T14:11:54;13.47;;;10.00;;
1178;SDS011;578;48.408;10.004;2022-11-15T14:14:23;14.77;;;9.57;;
1178;SDS011;578;48.408;10.004;2022-11-15T14:16:51;11.10;;;9.20;;
1178;SDS011;578;48.408;10.004;2022-11-15T14:19:39;13.40;;;10.13;;
1178;SDS011;578;48.408;10.004;2022-11-15T14:22:09;12.80;;;9.57;;
1178;SDS011;578;48.408;10.004;2022-11-15T14:24:38;12.13;;;9.33;;
1178;SDS011;578;48.408;10.004;2022-11-15T14:27:20;11.03;;;9.03;;
1178;SDS011;578;48.408;10.004;2022-11-15T14:29:49;10.13;;;8.73;;
1178;SDS011;578;48.408;10.004;2022-11-15T14:32:16;12.83;;;9.60;;
1178;SDS011;578;48.408;10.004;2022-11-15T14:34:46;12.60;;;8.80;;
1178;SDS011;578;48.408;10.004;2022-11-15T14:37:18;12.53;;;9.10;;
1178;SDS011;578;48.408;10.004;2022-11-15T14:39:47;11.67;;;9.20;;
1178;SDS011;578;48.408;10.004;2022-11-15T14:42:14;15.93;;;9.43;;
1178;SDS011;578;48.408;10.004;2022-11-15T14:44:42;12.20;;;8.40;;
1178;SDS011;578;48.408;10.004;2022-11-15T14:47:09;16.27;;;9.60;;
1178;SDS011;578;48.408;10.004;2022-11-15T14:49:35;11.57;;;8.20;;
1178;SDS011;578;48.408;10.004;2022-11-15T14:52:02;14.03;;;9.80;;
1178;SDS011;578;48.408;10.004;2022-11-15T14:54:33;11.73;;;8.67;;
1178;SDS011;578;48.408;10.004;2022-11-15T14:57:00;9.37;;;8.40;;
1178;SDS011;578;48.408;10.004;2022-11-15T14:59:27;10.57;;;8.60;;
1178;SDS011;578;48.408;10.004;2022-11-15T15:01:55;13.43;;;10.07;;
1178;SDS011;578;48.408;10.004;2022-11-15T15:04:21;11.30;;;9.30;;
1178;SDS011;578;48.408;10.004;2022-11-15T15:06:48;11.47;;;8.60;;
1178;SDS011;578;48.408;10.004;2022-11-15T15:09:15;11.50;;;9.13;;
1178;SDS011;578;48.408;10.004;2022-11-15T15:11:42;13.13;;;8.03;;
1178;SDS011;578;48.408;10.004;2022-11-15T15:14:14;9.60;;;7.87;;
1178;SDS011;578;48.408;10.004;2022-11-15T15:16:41;11.20;;;9.10;;
1178;SDS011;578;48.408;10.004;2022-11-15T15:19:09;12.80;;;8.67;;
1178;SDS011;578;48.408;10.004;2022-11-15T15:21:35;10.80;;;9.07;;
1178;SDS011;578;48.408;10.004;2022-11-15T15:24:03;13.13;;;8.67;;
1178;SDS011;578;48.408;10.004;2022-11-15T15:26:30;11.77;;;8.20;;
1178;SDS011;578;48.408;10.004;2022-11-15T15:28:59;11.00;;;8.23;;
1178;SDS011;578;48.408;10.004;2022-11-15T15:31:26;13.97;;;9.23;;
1178;SDS011;578;48.408;10.004;2022-11-15T15:33:53;13.90;;;8.83;;
1178;SDS011;578;48.408;10.004;2022-11-15T15:36:21;12.83;;;8.63;;
1178;SDS011;578;48.408;10.004;2022-11-15T15:38:48;13.10;;;8.17;;
1178;SDS011;578;48.408;10.004;2022-11-15T15:41:15;13.67;;;8.43;;
1178;SDS011;578;48.408;10.004;2022-11-15T15:43:42;11.90;;;8.07;;
1178;SDS011;578;48.408;10.004;2022-11-15T15:46:09;10.47;;;8.20;;
1178;SDS011;578;48.408;10.004;2022-11-15T15:48:38;17.30;;;8.60;;
1178;SDS011;578;48.408;10.004;2022-11-15T15:51:05;10.50;;;8.20;;